Time;durP1;ratioP1;P1;durP2;ratioP2;P2;SDS_P1;SDS_P2;PMS_P1;PMS_P2;Temp;Humidity;BMP_temperature;BMP_pressure;BME280_temperature;BME280_humidity;BME280_pressure;Samples;Min_cycle;Max_cycle;Signal;HPM_P1;HPM_P2
2022/05/21 00:00:38;;;;;;;1.90;1.00;;;18.00;69.90;;;;;;948116;149;27362;-72
2022/05/21 00:03:04;;;;;;;1.93;0.97;;;18.00;69.70;;;;;;947783;151;27386;-74
2022/05/21 00:05:31;;;;;;;0.83;0.67;;;18.10;69.60;;;;;;948203;151;27355;-74
2022/05/21 00:07:57;;;;;;;1.70;0.70;;;18.10;69.40;;;;;;947657;151;27340;-73
2022/05/21 00:10:24;;;;;;;4.10;0.90;;;18.10;69.30;;;;;;947895;150;27296;-72
2022/05/21 00:12:51;;;;;;;0.70;0.70;;;18.10;68.90;;;;;;948256;151;27352;-73
2022/05/21 00:15:17;;;;;;;0.97;0.90;;;18.10;68.60;;;;;;948210;151;27344;-73
2022/05/21 00:17:44;;;;;;;0.45;0.45;;;18.00;68.40;;;;;;947900;151;27403;-74
2022/05/21 00:20:47;;;;;;;0.53;0.53;;;18.00;68.20;;;;;;937065;150;27382;-73
2022/05/21 00:22:37;;;;;;;1.62;0.70;;;17.90;68.10;;;;;;937959;151;27357;-73
2022/05/21 00:25:04;;;;;;;0.60;0.60;;;17.80;68.20;;;;;;938666;151;27407;-72
2022/05/21 00:27:30;;;;;;;1.60;0.82;;;17.80;68.30;;;;;;937023;152;27616;-73
2022/05/21 00:29:57;;;;;;;0.90;0.90;;;17.70;68.20;;;;;;938350;151;27410;-74
2022/05/21 00:32:23;;;;;;;1.22;0.80;;;17.60;68.50;;;;;;938072;152;27375;-72
2022/05/21 00:34:50;;;;;;;0.50;0.50;;;17.60;68.30;;;;;;937081;150;27470;-73
2022/05/21 00:37:17;;;;;;;0.60;0.60;;;17.50;68.50;;;;;;938390;152;27322;-73
2022/05/21 00:39:43;;;;;;;0.95;0.82;;;17.50;68.80;;;;;;937102;152;27408;-73
2022/05/21 00:42:10;;;;;;;0.83;0.70;;;17.40;68.90;;;;;;937953;152;27311;-73
2022/05/21 00:44:36;;;;;;;1.43;0.80;;;17.40;69.20;;;;;;938135;152;27314;-74
2022/05/21 00:47:03;;;;;;;4.93;1.13;;;17.30;69.40;;;;;;938263;152;27436;-72
2022/05/21 00:49:29;;;;;;;1.02;0.88;;;17.30;69.60;;;;;;938126;149;27390;-73
2022/05/21 00:51:56;;;;;;;0.90;0.90;;;17.30;69.70;;;;;;938228;150;27377;-73
2022/05/21 00:54:23;;;;;;;0.93;0.60;;;17.20;69.80;;;;;;933818;152;27304;-73
2022/05/21 00:56:49;;;;;;;1.17;1.00;;;17.20;69.90;;;;;;937890;151;27402;-72
2022/05/21 01:02:01;;;;;;;0.70;0.70;;;17.10;70.00;;;;;;936911;152;27355;-72
2022/05/21 01:04:27;;;;;;;1.10;0.80;;;17.10;69.90;;;;;;937012;152;27457;-72
2022/05/21 01:06:54;;;;;;;1.07;0.80;;;17.00;69.70;;;;;;937836;152;27412;-73
2022/05/21 01:09:20;;;;;;;1.20;1.20;;;17.00;69.70;;;;;;937768;152;27478;-73
2022/05/21 01:11:47;;;;;;;0.60;0.60;;;16.90;69.70;;;;;;937475;150;27344;-72
2022/05/21 01:14:13;;;;;;;0.70;0.62;;;16.90;69.70;;;;;;937576;151;27478;-73
2022/05/21 01:16:41;;;;;;;0.70;0.70;;;16.90;69.90;;;;;;937098;152;27303;-73
2022/05/21 01:19:07;;;;;;;1.27;1.10;;;16.80;69.80;;;;;;938216;150;27436;-72
2022/05/21 01:21:33;;;;;;;2.20;0.77;;;16.70;69.80;;;;;;937358;152;27324;-72
2022/05/21 01:24:00;;;;;;;1.20;1.10;;;16.70;69.90;;;;;;937545;152;27465;-74
2022/05/21 01:26:26;;;;;;;1.27;1.10;;;16.60;69.90;;;;;;938027;152;27308;-72
2022/05/21 01:28:53;;;;;;;1.20;1.10;;;16.60;69.90;;;;;;937657;152;27341;-72
2022/05/21 01:31:20;;;;;;;1.40;1.07;;;16.50;69.90;;;;;;937468;152;27408;-73
2022/05/21 01:33:47;;;;;;;1.23;1.13;;;16.40;70.00;;;;;;938559;152;27333;-73
2022/05/21 01:36:14;;;;;;;1.10;0.93;;;16.30;70.30;;;;;;937397;151;27279;-74
2022/05/21 01:38:39;;;;;;;0.97;0.90;;;16.30;70.40;;;;;;937913;150;27693;-72
2022/05/21 01:41:07;;;;;;;2.07;1.00;;;16.20;70.50;;;;;;937928;152;27365;-73
2022/05/21 01:46:18;;;;;;;1.00;0.90;;;16.00;70.80;;;;;;937754;152;27382;-72
2022/05/21 01:48:44;;;;;;;1.17;1.00;;;16.00;70.90;;;;;;937267;152;27329;-74
2022/05/21 01:51:11;;;;;;;1.27;1.27;;;15.90;71.20;;;;;;937663;150;27414;-73
2022/05/21 01:53:37;;;;;;;2.63;1.20;;;15.80;71.50;;;;;;937446;150;27451;-72
2022/05/21 01:56:04;;;;;;;1.03;1.00;;;15.80;71.70;;;;;;937294;152;27353;-73
2022/05/21 01:58:30;;;;;;;1.30;1.20;;;15.70;71.90;;;;;;936840;150;27427;-72
2022/05/21 02:00:57;;;;;;;1.10;1.00;;;15.70;72.10;;;;;;937800;152;27384;-73
2022/05/21 02:03:24;;;;;;;1.40;1.10;;;15.60;72.60;;;;;;936555;152;27391;-73
2022/05/21 02:05:50;;;;;;;0.97;0.90;;;15.60;73.20;;;;;;938300;152;27352;-74
2022/05/21 02:08:17;;;;;;;1.07;0.97;;;15.60;73.70;;;;;;937863;151;27390;-72
2022/05/21 02:10:43;;;;;;;1.20;1.17;;;15.70;74.00;;;;;;937749;150;27289;-73
2022/05/21 02:13:13;;;;;;;1.00;0.93;;;15.70;74.20;;;;;;937895;151;27457;-73
2022/05/21 02:15:40;;;;;;;1.10;1.00;;;15.80;74.30;;;;;;934052;152;27416;-73
2022/05/21 02:18:06;;;;;;;0.80;0.80;;;15.80;74.30;;;;;;937630;151;27341;-74
2022/05/21 02:20:33;;;;;;;0.87;0.87;;;15.80;74.30;;;;;;937721;152;27394;-73
2022/05/21 02:22:59;;;;;;;1.10;1.00;;;15.90;74.30;;;;;;937700;152;27910;-72
2022/05/21 02:25:26;;;;;;;0.97;0.90;;;15.90;74.20;;;;;;938382;149;27444;-72
2022/05/21 02:27:53;;;;;;;1.17;1.07;;;16.00;74.00;;;;;;937413;152;27408;-73
2022/05/21 02:30:19;;;;;;;1.33;1.23;;;16.00;73.70;;;;;;937701;150;27445;-73
2022/05/21 02:32:46;;;;;;;1.63;1.17;;;16.00;73.40;;;;;;937746;152;27389;-75
2022/05/21 02:35:14;;;;;;;1.20;1.20;;;16.00;73.10;;;;;;937568;150;27365;-72
2022/05/21 02:40:24;;;;;;;1.27;1.17;;;16.00;73.00;;;;;;938078;150;27405;-74
2022/05/21 02:42:51;;;;;;;1.47;1.37;;;15.90;72.80;;;;;;938249;152;27284;-74
2022/05/21 02:45:20;;;;;;;1.60;1.50;;;15.90;72.80;;;;;;937255;152;27273;-74
2022/05/21 02:47:46;;;;;;;3.13;1.50;;;15.80;72.70;;;;;;937582;150;27378;-74
2022/05/21 02:50:13;;;;;;;2.60;1.33;;;15.80;72.60;;;;;;937347;152;27370;-75
2022/05/21 02:52:40;;;;;;;1.73;1.30;;;15.70;72.50;;;;;;936503;150;27490;-74
2022/05/21 02:55:06;;;;;;;1.30;1.20;;;15.60;73.40;;;;;;937425;152;27388;-74
2022/05/21 02:57:33;;;;;;;1.67;1.17;;;15.60;72.50;;;;;;937703;151;27310;-75
2022/05/21 03:00:02;;;;;;;1.97;1.43;;;15.50;72.50;;;;;;937746;152;27473;-75
2022/05/21 03:02:29;;;;;;;1.53;1.43;;;15.50;72.50;;;;;;936266;151;27405;-74
2022/05/21 03:04:55;;;;;;;2.43;1.50;;;15.50;72.50;;;;;;937008;151;28071;-74
2022/05/21 03:07:22;;;;;;;1.70;1.60;;;15.40;72.50;;;;;;937967;152;27365;-74
2022/05/21 03:12:33;;;;;;;1.63;1.53;;;15.30;72.60;;;;;;937546;152;27521;-76
2022/05/21 03:15:00;;;;;;;1.30;1.30;;;15.20;72.60;;;;;;937884;151;27316;-75
2022/05/21 03:17:26;;;;;;;1.53;1.43;;;15.20;72.80;;;;;;937646;151;27386;-74
2022/05/21 03:19:53;;;;;;;1.60;1.50;;;15.10;72.90;;;;;;938499;150;27329;-73
2022/05/21 03:22:20;;;;;;;1.57;1.47;;;15.00;72.90;;;;;;948026;151;27265;-74
2022/05/21 03:24:46;;;;;;;1.60;1.50;;;15.00;73.00;;;;;;948200;151;27478;-75
2022/05/21 03:27:13;;;;;;;1.70;1.60;;;14.90;73.20;;;;;;948424;150;27463;-73
2022/05/21 03:29:39;;;;;;;2.00;1.60;;;14.90;73.40;;;;;;948112;151;27305;-73
2022/05/21 03:32:07;;;;;;;2.50;1.40;;;14.80;73.50;;;;;;947826;148;27313;-73
2022/05/21 03:34:33;;;;;;;1.53;1.43;;;14.80;73.60;;;;;;947496;151;27424;-72
2022/05/21 03:36:59;;;;;;;1.73;1.60;;;14.70;73.80;;;;;;948194;150;27265;-74
2022/05/21 03:39:26;;;;;;;2.80;1.70;;;14.60;73.90;;;;;;947826;149;28035;-73
2022/05/21 03:41:52;;;;;;;1.87;1.73;;;14.60;74.10;;;;;;947252;149;27776;-73
2022/05/21 03:44:19;;;;;;;1.70;1.60;;;14.50;74.30;;;;;;947454;149;27340;-72
2022/05/21 03:46:46;;;;;;;3.00;1.93;;;14.50;74.70;;;;;;948328;151;27399;-73
2022/05/21 03:49:12;;;;;;;2.00;1.90;;;14.40;74.90;;;;;;947708;148;27340;-73
2022/05/21 03:51:39;;;;;;;2.03;1.83;;;14.40;75.30;;;;;;947959;148;27373;-74
2022/05/21 03:54:05;;;;;;;1.60;1.60;;;14.30;75.50;;;;;;948548;151;27355;-73
2022/05/21 03:56:32;;;;;;;2.40;1.90;;;14.30;75.80;;;;;;947947;151;27449;-73
2022/05/21 03:58:59;;;;;;;2.30;2.10;;;14.30;76.00;;;;;;947915;151;27421;-73
2022/05/21 04:01:25;;;;;;;3.20;2.13;;;14.30;76.30;;;;;;948237;150;27328;-73
2022/05/21 04:03:54;;;;;;;4.33;1.70;;;14.30;76.60;;;;;;948311;151;27314;-73
2022/05/21 04:06:19;;;;;;;1.80;1.70;;;14.30;76.70;;;;;;947933;151;27335;-73
2022/05/21 04:08:46;;;;;;;2.40;2.20;;;14.30;77.00;;;;;;947688;151;27502;-72
2022/05/21 04:11:12;;;;;;;2.00;1.90;;;14.30;77.20;;;;;;947643;151;27404;-73
2022/05/21 04:13:38;;;;;;;2.13;1.80;;;14.30;77.30;;;;;;948017;151;27420;-73
2022/05/21 04:16:05;;;;;;;3.10;2.17;;;14.30;77.50;;;;;;947717;151;27421;-73
2022/05/21 04:18:31;;;;;;;2.13;1.83;;;14.40;77.70;;;;;;948108;151;27312;-75
2022/05/21 04:20:58;;;;;;;4.17;2.37;;;14.40;77.80;;;;;;943065;151;27376;-73
2022/05/21 04:23:24;;;;;;;2.10;1.87;;;14.40;78.00;;;;;;928170;151;27366;-72
2022/05/21 04:25:51;;;;;;;2.17;1.77;;;14.40;78.20;;;;;;928342;151;27263;-73
2022/05/21 04:28:18;;;;;;;2.30;2.10;;;14.50;78.40;;;;;;928414;151;27708;-74
2022/05/21 04:30:44;;;;;;;2.47;2.20;;;14.50;78.60;;;;;;929199;151;27436;-75
2022/05/21 04:33:11;;;;;;;2.37;2.17;;;14.60;78.80;;;;;;926838;151;27394;-73
2022/05/21 04:38:22;;;;;;;2.20;2.10;;;14.70;79.20;;;;;;929141;151;27352;-73
2022/05/21 04:40:49;;;;;;;3.00;2.70;;;14.70;79.10;;;;;;929277;151;27463;-73
2022/05/21 04:43:15;;;;;;;4.77;2.67;;;14.80;79.40;;;;;;929707;151;27339;-73
2022/05/21 04:45:42;;;;;;;2.57;2.37;;;14.90;79.50;;;;;;927058;151;27381;-75
2022/05/21 04:48:09;;;;;;;3.03;2.57;;;15.00;79.70;;;;;;927993;151;27474;-74
2022/05/21 04:50:35;;;;;;;3.30;2.47;;;15.10;80.30;;;;;;926011;151;28499;-72
2022/05/21 04:53:02;;;;;;;2.83;2.53;;;15.20;81.10;;;;;;931413;149;27434;-73
2022/05/21 04:55:28;;;;;;;2.65;2.50;;;15.50;82.30;;;;;;927823;151;27732;-73
2022/05/21 04:57:55;;;;;;;3.02;2.17;;;15.90;83.80;;;;;;929387;151;27406;-74
2022/05/21 05:00:22;;;;;;;2.22;2.10;;;16.30;85.00;;;;;;928102;151;27501;-73
2022/05/21 05:02:48;;;;;;;2.22;2.08;;;16.90;85.80;;;;;;928504;151;27321;-73
2022/05/21 05:05:15;;;;;;;2.12;1.98;;;17.60;86.30;;;;;;927299;151;27441;-74
2022/05/21 05:07:41;;;;;;;2.80;1.87;;;18.30;86.00;;;;;;927884;151;27363;-73
2022/05/21 05:10:08;;;;;;;2.02;1.92;;;19.00;85.00;;;;;;928637;151;27396;-74
2022/05/21 05:12:35;;;;;;;2.30;2.10;;;19.80;83.60;;;;;;930545;151;27420;-73
2022/05/21 05:15:01;;;;;;;2.35;2.05;;;20.60;82.20;;;;;;927238;151;27431;-74
2022/05/21 05:17:28;;;;;;;2.00;1.90;;;21.50;80.20;;;;;;929301;151;27371;-73
2022/05/21 05:19:57;;;;;;;2.05;1.85;;;22.20;77.80;;;;;;928845;151;27255;-73
2022/05/21 05:22:23;;;;;;;1.87;1.77;;;23.00;75.70;;;;;;933660;151;27428;-76
2022/05/21 05:24:50;;;;;;;2.22;1.60;;;23.70;73.40;;;;;;937588;149;27367;-73
2022/05/21 05:27:16;;;;;;;2.08;1.45;;;24.40;71.00;;;;;;936506;152;28910;-73
2022/05/21 05:29:43;;;;;;;1.80;1.70;;;25.10;69.00;;;;;;938041;150;27347;-73
2022/05/21 05:32:10;;;;;;;1.90;1.32;;;25.70;67.00;;;;;;936950;152;27399;-73
2022/05/21 05:34:36;;;;;;;1.42;1.32;;;26.20;64.90;;;;;;937135;151;27324;-74
2022/05/21 05:37:03;;;;;;;1.50;1.40;;;26.70;63.40;;;;;;938342;152;27352;-73
2022/05/21 05:39:30;;;;;;;1.02;1.02;;;27.20;61.80;;;;;;938095;150;27472;-73
2022/05/21 05:41:56;;;;;;;0.93;0.93;;;27.70;60.50;;;;;;937788;152;27409;-73
2022/05/21 05:44:23;;;;;;;1.32;1.22;;;28.00;59.10;;;;;;938381;151;27332;-73
2022/05/21 05:46:49;;;;;;;1.22;1.12;;;28.40;58.40;;;;;;937647;151;27304;-74
2022/05/21 05:49:16;;;;;;;1.75;1.10;;;28.80;58.00;;;;;;937615;150;27346;-75
2022/05/21 05:51:42;;;;;;;0.85;0.85;;;29.20;57.50;;;;;;938199;150;27396;-74
2022/05/21 05:54:09;;;;;;;0.75;0.75;;;29.70;56.80;;;;;;937693;152;28307;-76
2022/05/21 05:56:36;;;;;;;1.12;0.90;;;30.10;56.00;;;;;;938120;152;27255;-74
2022/05/21 06:01:29;;;;;;;0.90;0.90;;;30.90;54.60;;;;;;920973;152;27440;-76
2022/05/21 06:03:55;;;;;;;1.32;1.22;;;31.40;54.00;;;;;;937923;151;27427;-73
2022/05/21 06:06:22;;;;;;;1.10;1.00;;;31.80;53.30;;;;;;937793;151;27242;-74
2022/05/21 06:08:48;;;;;;;0.88;0.88;;;32.30;52.00;;;;;;938038;152;27302;-74
2022/05/21 06:11:15;;;;;;;1.05;0.80;;;32.70;51.30;;;;;;937710;152;27338;-75
2022/05/21 06:13:42;;;;;;;1.17;1.07;;;33.00;50.70;;;;;;938816;152;27392;-75
2022/05/21 06:16:08;;;;;;;1.20;1.10;;;33.30;49.30;;;;;;937815;152;27358;-74
2022/05/21 06:18:35;;;;;;;0.95;0.62;;;33.50;48.70;;;;;;937599;150;27655;-75
2022/05/21 06:21:01;;;;;;;1.40;0.90;;;33.70;48.40;;;;;;937294;152;27429;-74
2022/05/21 06:23:28;;;;;;;2.77;0.98;;;33.90;48.00;;;;;;937733;152;27494;-75
2022/05/21 06:25:57;;;;;;;1.95;0.68;;;34.20;47.40;;;;;;937029;152;27294;-75
2022/05/21 06:28:21;;;;;;;2.62;0.88;;;34.30;46.30;;;;;;937899;151;27446;-76
2022/05/21 06:30:48;;;;;;;0.70;0.57;;;34.30;44.80;;;;;;938244;151;27350;-74
2022/05/21 06:33:17;;;;;;;0.80;0.80;;;34.20;44.00;;;;;;937566;152;27475;-75
2022/05/21 06:35:46;;;;;;;1.05;0.75;;;33.90;43.30;;;;;;937910;152;27343;-74
2022/05/21 06:38:13;;;;;;;0.40;0.40;;;33.40;42.60;;;;;;937821;152;27314;-75
2022/05/21 06:40:39;;;;;;;0.85;0.70;;;32.90;42.90;;;;;;937501;152;27781;-75
2022/05/21 06:43:06;;;;;;;1.40;0.80;;;32.40;42.70;;;;;;937677;152;28954;-74
2022/05/21 06:45:33;;;;;;;1.10;0.85;;;31.80;43.00;;;;;;937668;152;27291;-75
2022/05/21 06:47:59;;;;;;;0.93;0.65;;;31.20;43.00;;;;;;937766;150;27367;-75
2022/05/21 06:50:27;;;;;;;1.98;0.70;;;30.80;43.90;;;;;;938573;150;27350;-76
2022/05/21 06:52:52;;;;;;;1.15;0.50;;;30.50;44.90;;;;;;938025;150;27483;-74
2022/05/21 06:55:20;;;;;;;0.45;0.45;;;30.60;46.30;;;;;;936867;152;27313;-75
2022/05/21 06:57:46;;;;;;;1.75;0.78;;;30.80;47.20;;;;;;937620;152;27411;-74
2022/05/21 07:00:12;;;;;;;1.75;0.60;;;31.30;47.50;;;;;;936345;150;27309;-75
2022/05/21 07:02:40;;;;;;;1.45;0.80;;;32.00;47.80;;;;;;936900;151;27292;-75
2022/05/21 07:07:50;;;;;;;1.32;0.70;;;33.10;44.60;;;;;;937042;150;27507;-74
2022/05/21 07:10:19;;;;;;;1.50;0.80;;;33.40;43.40;;;;;;937704;150;27370;-74
2022/05/21 07:12:46;;;;;;;1.50;0.85;;;33.50;42.40;;;;;;938103;151;27326;-75
2022/05/21 07:15:13;;;;;;;1.42;0.80;;;33.30;41.70;;;;;;937777;151;27335;-74
2022/05/21 07:17:39;;;;;;;0.75;0.68;;;33.00;41.50;;;;;;938156;151;27341;-75
2022/05/21 07:20:06;;;;;;;1.02;0.72;;;32.80;41.30;;;;;;937891;152;27378;-74
2022/05/21 07:22:33;;;;;;;0.50;0.50;;;32.40;41.10;;;;;;938396;149;27385;-75
2022/05/21 07:24:59;;;;;;;0.57;0.57;;;32.00;41.20;;;;;;943468;149;27314;-75
2022/05/21 07:27:26;;;;;;;1.55;0.60;;;31.70;41.80;;;;;;943215;151;27293;-74
2022/05/21 07:29:52;;;;;;;0.93;0.70;;;31.40;42.20;;;;;;943554;151;27290;-75
2022/05/21 07:32:19;;;;;;;1.60;0.68;;;31.20;42.30;;;;;;942766;151;27802;-76
2022/05/21 07:34:46;;;;;;;0.90;0.55;;;31.10;42.40;;;;;;942530;151;27438;-75
2022/05/21 07:37:12;;;;;;;1.37;0.68;;;30.90;42.50;;;;;;942509;150;27408;-74
2022/05/21 07:39:39;;;;;;;1.70;0.90;;;30.80;42.80;;;;;;942659;149;27411;-75
2022/05/21 07:42:05;;;;;;;1.00;0.55;;;30.80;43.30;;;;;;943083;150;27325;-75
2022/05/21 07:44:32;;;;;;;0.57;0.50;;;30.80;43.10;;;;;;942701;151;27324;-76
2022/05/21 07:46:58;;;;;;;0.50;0.42;;;30.80;42.70;;;;;;942113;151;27442;-74
2022/05/21 07:49:25;;;;;;;0.50;0.50;;;30.70;43.00;;;;;;942210;150;27440;-75
2022/05/21 07:51:52;;;;;;;0.70;0.60;;;30.60;42.20;;;;;;942970;149;27385;-74
2022/05/21 07:54:18;;;;;;;2.33;0.80;;;30.50;42.50;;;;;;944042;149;27427;-75
2022/05/21 07:56:45;;;;;;;0.88;0.65;;;30.60;42.80;;;;;;943261;151;27419;-76
2022/05/21 07:59:11;;;;;;;0.85;0.57;;;30.70;43.40;;;;;;942314;151;27352;-75
2022/05/21 08:01:38;;;;;;;2.92;0.70;;;31.00;43.40;;;;;;942973;151;27448;-75
2022/05/21 08:04:05;;;;;;;1.30;0.72;;;31.20;42.40;;;;;;943239;151;27361;-75
2022/05/21 08:06:31;;;;;;;0.72;0.72;;;31.30;41.50;;;;;;942757;150;27410;-74
2022/05/21 08:08:59;;;;;;;1.52;0.90;;;31.30;41.20;;;;;;943608;151;27329;-75
2022/05/21 08:11:24;;;;;;;1.02;0.62;;;31.00;41.00;;;;;;942988;150;27437;-77
2022/05/21 08:13:52;;;;;;;1.02;0.88;;;30.80;40.70;;;;;;943321;151;27361;-74
2022/05/21 08:16:18;;;;;;;0.90;0.60;;;30.50;41.00;;;;;;944025;149;27356;-74
2022/05/21 08:18:44;;;;;;;1.12;0.80;;;30.30;41.00;;;;;;943522;151;27312;-76
2022/05/21 08:21:11;;;;;;;0.98;0.70;;;30.10;40.60;;;;;;942786;150;27365;-75
2022/05/21 08:29:06;;;;;;;1.07;0.98;;;29.60;41.60;;;;;;936791;152;27345;-75
2022/05/21 08:31:33;;;;;;;0.65;0.45;;;29.50;41.70;;;;;;936519;152;27400;-75
2022/05/21 08:34:00;;;;;;;1.42;0.80;;;29.40;42.00;;;;;;936766;151;27336;-75
2022/05/21 08:36:26;;;;;;;1.62;0.90;;;29.30;42.00;;;;;;936727;151;27456;-75
2022/05/21 08:38:53;;;;;;;0.78;0.60;;;29.30;41.80;;;;;;937411;152;27831;-74
2022/05/21 08:41:19;;;;;;;0.78;0.78;;;29.20;41.60;;;;;;936924;151;28516;-74
2022/05/21 08:44:04;;;;;;;1.90;0.80;;;29.00;41.60;;;;;;935413;152;27385;-76
2022/05/21 08:47:01;;;;;;;2.00;0.93;;;28.90;41.50;;;;;;935919;150;27404;-75
2022/05/21 08:49:31;;;;;;;1.15;1.00;;;28.70;41.60;;;;;;935912;150;27720;-75
2022/05/21 08:51:54;;;;;;;3.15;0.60;;;28.40;41.40;;;;;;935840;150;27444;-74
2022/05/21 08:54:23;;;;;;;1.92;0.80;;;28.20;41.30;;;;;;915861;152;27362;-75
2022/05/21 08:56:50;;;;;;;0.88;0.62;;;27.80;41.10;;;;;;935936;152;27331;-74
2022/05/21 08:59:17;;;;;;;1.87;1.02;;;27.60;41.50;;;;;;936476;151;27286;-75
2022/05/21 09:01:44;;;;;;;2.27;1.00;;;27.30;41.90;;;;;;937014;151;27934;-75
2022/05/21 09:04:12;;;;;;;1.10;0.62;;;27.00;42.00;;;;;;936486;151;27322;-75
2022/05/21 09:06:39;;;;;;;1.90;0.72;;;26.80;42.30;;;;;;936662;150;27976;-74
2022/05/21 09:09:18;;;;;;;1.37;0.90;;;26.60;42.50;;;;;;935442;151;28718;-74
2022/05/21 09:11:50;;;;;;;2.85;0.62;;;26.40;42.90;;;;;;935824;151;27341;-74
2022/05/21 09:14:46;;;;;;;0.98;0.70;;;26.20;43.30;;;;;;934859;152;27385;-74
2022/05/21 09:17:13;;;;;;;1.75;0.85;;;26.10;43.60;;;;;;935558;152;27360;-75
2022/05/21 09:19:40;;;;;;;1.20;0.78;;;26.10;44.10;;;;;;935637;150;27546;-74
2022/05/21 09:22:07;;;;;;;0.72;0.57;;;26.10;44.20;;;;;;936086;150;27336;-73
2022/05/21 09:24:39;;;;;;;1.80;0.80;;;26.20;44.40;;;;;;936366;150;27416;-74
2022/05/21 09:27:21;;;;;;;1.85;0.70;;;26.30;44.50;;;;;;936302;150;27328;-74
2022/05/21 09:29:47;;;;;;;0.98;0.72;;;26.50;45.00;;;;;;935422;151;27746;-75
2022/05/21 09:32:19;;;;;;;2.55;1.45;;;26.80;45.20;;;;;;936869;151;27366;-73
2022/05/21 09:34:46;;;;;;;2.30;0.62;;;27.20;44.70;;;;;;937076;152;27446;-73
2022/05/21 09:37:16;;;;;;;1.40;0.65;;;27.50;44.10;;;;;;937119;151;27302;-74
2022/05/21 09:39:42;;;;;;;0.60;0.57;;;27.70;43.60;;;;;;937609;151;27335;-74
2022/05/21 09:45:23;;;;;;;1.40;0.75;;;28.10;44.30;;;;;;937141;151;27366;-75
2022/05/21 09:47:49;;;;;;;0.95;0.80;;;28.50;44.20;;;;;;932773;150;27441;-74
2022/05/21 09:50:16;;;;;;;1.95;0.60;;;28.90;44.20;;;;;;936011;151;27450;-74
2022/05/21 09:52:45;;;;;;;0.93;0.65;;;29.30;43.90;;;;;;936978;150;27351;-74
2022/05/21 09:55:18;;;;;;;0.65;0.65;;;29.70;43.30;;;;;;936977;149;27371;-74
2022/05/21 09:57:45;;;;;;;1.15;0.82;;;30.00;42.20;;;;;;878685;160;27562;-74
2022/05/21 10:00:17;;;;;;;1.20;0.68;;;30.20;41.60;;;;;;914279;153;27376;-73
2022/05/21 10:02:44;;;;;;;1.82;0.70;;;30.20;41.60;;;;;;919250;152;27360;-73
2022/05/21 10:05:13;;;;;;;1.50;0.82;;;30.30;41.50;;;;;;919865;152;27548;-74
2022/05/21 10:13:15;;;;;;;0.85;0.85;;;30.30;40.70;;;;;;931894;151;27480;-75
2022/05/21 10:15:43;;;;;;;0.95;0.70;;;30.20;40.50;;;;;;932457;151;27319;-74
2022/05/21 10:18:11;;;;;;;1.95;0.90;;;30.00;40.20;;;;;;931057;151;27332;-74
2022/05/21 10:20:41;;;;;;;2.58;1.07;;;29.80;39.90;;;;;;932160;151;27372;-73
2022/05/21 10:23:25;;;;;;;4.58;0.82;;;29.50;39.90;;;;;;931831;151;27467;-75
2022/05/21 10:26:14;;;;;;;0.68;0.60;;;29.20;40.20;;;;;;926957;151;27752;-74
2022/05/21 10:29:01;;;;;;;1.70;0.65;;;28.80;40.60;;;;;;920215;153;27852;-74
2022/05/21 10:31:43;;;;;;;1.45;0.65;;;28.60;41.10;;;;;;924450;151;27975;-73
2022/05/21 10:34:40;;;;;;;2.02;0.98;;;28.40;41.10;;;;;;918673;153;27385;-74
2022/05/21 10:37:25;;;;;;;1.22;0.70;;;28.30;41.40;;;;;;920115;153;27439;-75
2022/05/21 10:40:15;;;;;;;1.37;0.40;;;28.10;41.50;;;;;;923854;151;27851;-74
2022/05/21 10:42:45;;;;;;;0.93;0.65;;;28.00;41.80;;;;;;893411;153;28049;-73
2022/05/21 10:45:20;;;;;;;1.20;0.80;;;27.90;41.80;;;;;;919302;153;27308;-74
2022/05/21 10:48:05;;;;;;;0.98;0.90;;;27.90;42.10;;;;;;926120;151;27424;-74
2022/05/21 10:50:34;;;;;;;1.92;0.50;;;27.90;42.30;;;;;;918785;153;27350;-74
2022/05/21 10:53:19;;;;;;;1.55;0.85;;;27.90;42.30;;;;;;919525;152;27545;-74
2022/05/21 10:55:57;;;;;;;2.62;1.15;;;28.00;42.30;;;;;;923969;151;27762;-73
2022/05/21 10:58:39;;;;;;;1.20;0.70;;;28.10;42.20;;;;;;920834;153;27311;-75
2022/05/21 11:01:39;;;;;;;2.47;0.80;;;28.20;42.00;;;;;;922019;151;27298;-74
2022/05/21 11:04:34;;;;;;;1.85;0.88;;;28.30;42.00;;;;;;920184;151;27780;-72
2022/05/21 11:07:09;;;;;;;0.88;0.57;;;28.40;41.80;;;;;;917904;151;27468;-74
2022/05/21 11:10:01;;;;;;;1.12;0.82;;;28.40;41.60;;;;;;925645;151;27393;-74
2022/05/21 11:12:45;;;;;;;1.92;1.10;;;28.50;41.60;;;;;;882744;154;27359;-74
2022/05/21 11:15:12;;;;;;;2.10;0.72;;;28.60;41.30;;;;;;921728;151;27325;-74
2022/05/21 11:18:06;;;;;;;1.30;0.90;;;28.60;40.90;;;;;;916863;153;27742;-74
2022/05/21 11:20:38;;;;;;;3.17;0.80;;;28.50;41.10;;;;;;921186;151;27472;-73
2022/05/21 11:23:17;;;;;;;4.35;0.90;;;28.60;41.20;;;;;;922810;151;27410;-75
2022/05/21 11:25:43;;;;;;;3.40;1.07;;;28.50;41.00;;;;;;927943;150;27481;-73
2022/05/21 11:28:25;;;;;;;0.70;0.70;;;28.50;40.80;;;;;;917150;152;27357;-75
2022/05/21 11:30:56;;;;;;;0.68;0.68;;;28.50;40.70;;;;;;932658;150;27333;-74
2022/05/21 11:38:51;;;;;;;1.05;0.80;;;28.30;40.70;;;;;;935377;149;27484;-73
2022/05/21 11:41:29;;;;;;;1.20;0.90;;;28.30;40.80;;;;;;933643;149;27299;-74
2022/05/21 11:46:52;;;;;;;1.22;0.70;;;28.10;41.20;;;;;;934590;150;27464;-73
2022/05/21 11:49:27;;;;;;;1.77;0.80;;;28.10;40.80;;;;;;933826;150;27262;-73
2022/05/21 11:51:54;;;;;;;0.80;0.72;;;28.00;40.80;;;;;;935707;149;27390;-74
2022/05/21 11:54:39;;;;;;;2.17;0.98;;;28.00;40.70;;;;;;927336;152;27368;-73
2022/05/21 11:57:05;;;;;;;0.98;0.80;;;27.90;40.30;;;;;;921135;152;27996;-75
2022/05/21 11:59:50;;;;;;;1.85;0.60;;;27.80;40.40;;;;;;929401;151;27374;-74
2022/05/21 12:02:17;;;;;;;1.25;0.98;;;27.80;40.40;;;;;;930136;152;27783;-74
2022/05/21 12:04:43;;;;;;;1.12;0.98;;;27.70;40.60;;;;;;920345;153;27289;-74
2022/05/21 12:07:13;;;;;;;1.07;0.88;;;27.70;40.60;;;;;;934572;149;27377;-74
2022/05/21 12:09:39;;;;;;;1.45;1.00;;;27.70;40.70;;;;;;931941;151;27353;-74
2022/05/21 12:12:18;;;;;;;1.57;0.90;;;27.60;40.50;;;;;;928104;151;27375;-76
2022/05/21 12:14:50;;;;;;;1.65;0.85;;;27.70;40.60;;;;;;928927;151;27361;-73
2022/05/21 12:17:36;;;;;;;2.12;0.70;;;27.70;40.70;;;;;;932849;151;27375;-75
2022/05/21 12:20:02;;;;;;;1.47;0.90;;;27.70;40.70;;;;;;930535;150;27472;-75
2022/05/21 12:22:38;;;;;;;2.70;1.30;;;27.70;40.80;;;;;;932064;150;27416;-74
2022/05/21 12:25:04;;;;;;;0.95;0.70;;;27.70;40.60;;;;;;932729;151;28007;-75
2022/05/21 12:27:31;;;;;;;0.65;0.65;;;27.60;40.50;;;;;;932188;151;27895;-75
2022/05/21 12:30:00;;;;;;;1.62;0.80;;;27.60;40.30;;;;;;931652;151;27394;-74
2022/05/21 12:32:27;;;;;;;1.70;0.70;;;27.50;40.00;;;;;;931842;151;27362;-75
2022/05/21 12:35:14;;;;;;;2.12;0.90;;;27.50;40.10;;;;;;932624;151;27364;-73
2022/05/21 12:37:49;;;;;;;1.05;0.68;;;27.40;40.20;;;;;;932063;151;27771;-76
2022/05/21 12:40:23;;;;;;;0.80;0.70;;;27.30;39.90;;;;;;932261;151;27382;-74
2022/05/21 12:42:51;;;;;;;0.80;0.78;;;27.30;39.90;;;;;;933095;151;27355;-74
2022/05/21 12:45:42;;;;;;;0.60;0.53;;;27.20;39.90;;;;;;929815;151;27394;-74
2022/05/21 12:48:08;;;;;;;1.75;0.65;;;27.20;40.00;;;;;;932582;151;27351;-74
2022/05/21 12:50:35;;;;;;;0.75;0.50;;;27.10;39.90;;;;;;931458;151;27378;-74
2022/05/21 12:53:04;;;;;;;1.42;0.90;;;27.10;39.90;;;;;;931817;149;27427;-74
2022/05/21 12:55:31;;;;;;;1.20;0.72;;;27.10;39.60;;;;;;931978;151;27347;-74
2022/05/21 12:57:57;;;;;;;1.52;0.62;;;27.10;39.80;;;;;;933535;151;27355;-74
2022/05/21 13:00:24;;;;;;;1.57;0.72;;;27.10;40.00;;;;;;930127;151;27359;-74
2022/05/21 13:02:51;;;;;;;1.90;0.70;;;27.10;39.90;;;;;;932713;151;27395;-73
2022/05/21 13:05:23;;;;;;;1.80;0.50;;;27.20;40.00;;;;;;934580;151;27374;-73
2022/05/21 13:07:49;;;;;;;2.83;0.50;;;27.30;40.00;;;;;;933183;151;27362;-75
2022/05/21 13:10:21;;;;;;;0.70;0.70;;;27.30;39.90;;;;;;932861;151;27454;-75
2022/05/21 13:12:48;;;;;;;0.98;0.75;;;27.30;39.60;;;;;;931722;151;27382;-74
2022/05/21 13:15:15;;;;;;;0.80;0.80;;;27.30;39.50;;;;;;933352;151;27344;-73
2022/05/21 13:17:53;;;;;;;0.72;0.55;;;27.30;39.40;;;;;;932504;151;27456;-74
2022/05/21 13:20:19;;;;;;;1.42;0.70;;;27.30;39.40;;;;;;932744;151;27347;-75
2022/05/21 13:23:04;;;;;;;0.88;0.68;;;27.30;39.40;;;;;;932233;151;27385;-75
2022/05/21 13:25:31;;;;;;;2.27;0.98;;;27.20;39.20;;;;;;932026;151;27472;-74
2022/05/21 13:27:57;;;;;;;0.90;0.53;;;27.20;39.20;;;;;;927774;151;27383;-74
2022/05/21 13:30:30;;;;;;;1.47;0.57;;;27.10;39.10;;;;;;927276;153;27374;-74
2022/05/21 13:32:56;;;;;;;2.85;1.25;;;27.00;39.00;;;;;;921204;153;27463;-74
2022/05/21 13:35:38;;;;;;;0.70;0.60;;;27.00;39.30;;;;;;921963;153;27454;-74
2022/05/21 13:38:04;;;;;;;0.80;0.60;;;26.90;39.50;;;;;;920132;153;28066;-74